createdAt,value
2024-01-05T00:01:59.021Z,98739.13
2024-01-05T00:05:07.125Z,98732.88
2024-01-05T00:08:16.078Z,98748.19
2024-01-05T00:11:23.480Z,98743.81
2024-01-05T00:14:32.704Z,98747.63
2024-01-05T00:17:39.082Z,98736.09
2024-01-05T00:20:48.402Z,98732.88
2024-01-05T00:23:53.577Z,98740.97
2024-01-05T00:27:01.638Z,98729.91
2024-01-05T00:30:08.410Z,98742.13
2024-01-05T00:33:19.067Z,98733.22
2024-01-05T00:36:25.926Z,98740.41
2024-01-05T00:39:30.330Z,98739.88
2024-01-05T00:42:36.323Z,98740.84
2024-01-05T00:45:44.760Z,98726.63
2024-01-05T00:48:50.922Z,98741.72
2024-01-05T00:51:57.839Z,98738.03
2024-01-05T00:55:09.973Z,98721.47
2024-01-05T00:58:13.916Z,98736.91
2024-01-05T01:01:27.386Z,98736.06
2024-01-05T01:04:31.545Z,98728.47
2024-01-05T01:07:39.725Z,98745.81
2024-01-05T01:10:44.093Z,98741.75
2024-01-05T01:13:59.332Z,98745.91
2024-01-05T01:17:10.126Z,98735.16
2024-01-05T01:20:14.237Z,98742.69
2024-01-05T01:23:22.982Z,98734.03
2024-01-05T01:26:30.508Z,98747.31
2024-01-05T01:29:34.661Z,98739.03
2024-01-05T01:32:42.034Z,98745.38
2024-01-05T01:35:49.124Z,98728.59
2024-01-05T01:38:57.675Z,98743.97
2024-01-05T01:42:09.482Z,98747.28
2024-01-05T01:45:13.893Z,98743.94
2024-01-05T01:48:26.740Z,98746.38
2024-01-05T01:51:35.600Z,98734.81
2024-01-05T01:54:43.590Z,98727.94
2024-01-05T01:57:47.786Z,98738.13
2024-01-05T02:00:52.539Z,98733.19
2024-01-05T02:04:20.288Z,98739.06
2024-01-05T02:07:28.687Z,98732.81
2024-01-05T02:10:32.671Z,98737.34
2024-01-05T02:13:36.640Z,98751.25
2024-01-05T02:16:43.834Z,98737.91
2024-01-05T02:19:50.594Z,98745.94
2024-01-05T02:22:59.899Z,98746.28
2024-01-05T02:26:10.277Z,98743.78
2024-01-05T02:29:15.241Z,98742.63
2024-01-05T02:32:20.046Z,98757.13
2024-01-05T02:35:29.325Z,98745.84
2024-01-05T02:38:35.783Z,98756.06
2024-01-05T02:41:41.259Z,98743.78
2024-01-05T02:44:52.280Z,98744.56
2024-01-05T02:47:56.458Z,98749.91
2024-01-05T02:51:00.565Z,98757.75
2024-01-05T02:54:04.605Z,98751.94
2024-01-05T02:57:17.162Z,98759.44
2024-01-05T03:00:24.403Z,98753.88
2024-01-05T03:03:28.598Z,98762.09
2024-01-05T03:06:32.778Z,98762.56
2024-01-05T03:09:36.679Z,98757.44
2024-01-05T03:12:42.324Z,98761.75
2024-01-05T03:15:47.445Z,98756.41
2024-01-05T03:18:51.430Z,98759.91
2024-01-05T03:21:55.452Z,98766.22
2024-01-05T03:24:59.748Z,98761.81
2024-01-05T03:28:12.111Z,98750.19
2024-01-05T03:31:16.323Z,98776.69
2024-01-05T03:34:20.375Z,98754.19
2024-01-05T03:37:24.488Z,98759.03
2024-01-05T03:40:28.499Z,98761.66
2024-01-05T03:43:33.993Z,98766.75
2024-01-05T03:46:41.381Z,98765.91
2024-01-05T03:49:47.899Z,98758.13
2024-01-05T03:52:56.524Z,98769.56
2024-01-05T03:56:00.529Z,98769.81
2024-01-05T03:59:08.409Z,98766.16
2024-01-05T04:02:12.956Z,98777.22
2024-01-05T04:05:17.243Z,98775.75
2024-01-05T04:08:21.191Z,98764.09
2024-01-05T04:11:31.339Z,98766.84
2024-01-05T04:14:39.648Z,98774.88
2024-01-05T04:17:48.033Z,98777.53
2024-01-05T04:20:56.424Z,98765.47
2024-01-05T04:24:00.681Z,98790.53
2024-01-05T04:27:12.578Z,98783.91
2024-01-05T04:30:18.930Z,98785.09
2024-01-05T04:33:24.700Z,98788.16
2024-01-05T04:36:31.224Z,98774.41
2024-01-05T04:39:35.321Z,98791.06
2024-01-05T04:42:41.278Z,98780.16
2024-01-05T04:45:50.776Z,98768.88
2024-01-05T04:48:57.629Z,98773.75
2024-01-05T04:52:08.683Z,98764.69
2024-01-05T04:55:16.173Z,98765.69
2024-01-05T04:58:25.082Z,98767.53
2024-01-05T05:01:30.903Z,98783.84
2024-01-05T05:04:37.087Z,98780.59
2024-01-05T05:07:41.100Z,98778.69
2024-01-05T05:10:51.396Z,98768.63
2024-01-05T05:14:06.197Z,98767.66
2024-01-05T05:17:21.241Z,98791.59
2024-01-05T05:20:29.460Z,98791.22
2024-01-05T05:23:33.729Z,98795.78
2024-01-05T05:26:41.541Z,98796.03
2024-01-05T05:29:45.817Z,98782.75
2024-01-05T05:32:51.231Z,98798.38
2024-01-05T05:36:03.272Z,98775.00
2024-01-05T05:39:10.757Z,98781.22
2024-01-05T05:42:17.290Z,98787.81
2024-01-05T05:45:30.529Z,98801.13
2024-01-05T05:48:37.213Z,98807.91
2024-01-05T05:51:44.451Z,98809.72
2024-01-05T05:54:53.824Z,98810.19
2024-01-05T05:58:09.327Z,98811.50
2024-01-05T06:01:14.582Z,98809.19
2024-01-05T06:04:22.443Z,98810.81
2024-01-05T06:07:26.796Z,98816.44
2024-01-05T06:10:32.779Z,98826.44
2024-01-05T06:13:38.690Z,98817.13
2024-01-05T06:16:47.677Z,98824.03
2024-01-05T06:19:56.955Z,98796.25
2024-01-05T06:23:05.097Z,98819.75
2024-01-05T06:26:15.140Z,98821.63
2024-01-05T06:29:24.941Z,98814.66
2024-01-05T06:32:28.940Z,98814.50
2024-01-05T06:35:40.687Z,98829.75
2024-01-05T06:38:48.666Z,98833.22
2024-01-05T06:41:53.224Z,98840.63
2024-01-05T06:44:58.472Z,98818.09
2024-01-05T06:48:05.875Z,98848.75
2024-01-05T06:51:31.712Z,98839.84
2024-01-05T06:54:37.228Z,98848.19
2024-01-05T06:57:43.177Z,98835.78
2024-01-05T07:00:49.084Z,98831.97
2024-01-05T07:03:53.120Z,98850.63
2024-01-05T07:07:01.331Z,98852.09
2024-01-05T07:10:06.449Z,98856.41
2024-01-05T07:13:14.317Z,98850.28
2024-01-05T07:16:22.173Z,98858.66
2024-01-05T07:19:26.285Z,98857.75
2024-01-05T07:22:32.244Z,98848.72
2024-01-05T07:25:41.444Z,98849.44
2024-01-05T07:28:45.491Z,98861.03
2024-01-05T07:31:53.299Z,98869.28
2024-01-05T07:34:59.677Z,98862.28
2024-01-05T07:38:08.281Z,98866.16
2024-01-05T07:41:25.061Z,98872.06
2024-01-05T07:44:31.070Z,98865.47
2024-01-05T07:47:35.327Z,98863.22
2024-01-05T07:50:41.630Z,98868.66
2024-01-05T07:53:51.792Z,98872.31
2024-01-05T07:56:58.914Z,98873.47
2024-01-05T08:00:14.851Z,98872.06
2024-01-05T08:03:21.296Z,98876.22
2024-01-05T08:06:25.815Z,98866.47
2024-01-05T08:09:34.729Z,98865.38
2024-01-05T08:12:46.136Z,98866.00
2024-01-05T08:15:50.483Z,98865.16
2024-01-05T08:18:58.599Z,98871.34
2024-01-05T08:22:02.686Z,98860.38
2024-01-05T08:25:19.416Z,98874.22
2024-01-05T08:28:24.700Z,98865.63
2024-01-05T08:31:28.984Z,98877.50
2024-01-05T08:34:41.144Z,98863.34
2024-01-05T08:37:51.257Z,98867.44
2024-01-05T08:40:59.693Z,98859.75
2024-01-05T08:44:08.612Z,98862.19
2024-01-05T08:47:22.493Z,98873.69
2024-01-05T08:50:29.947Z,98872.28
2024-01-05T08:53:36.143Z,98872.25
2024-01-05T08:56:43.713Z,98854.97
2024-01-05T08:59:51.651Z,98863.66
2024-01-05T09:02:56.837Z,98849.88
2024-01-05T09:06:00.961Z,98865.34
2024-01-05T09:09:11.875Z,98866.13
2024-01-05T09:12:20.900Z,98857.19
2024-01-05T09:15:30.748Z,98848.75
2024-01-05T09:18:37.121Z,98860.03
2024-01-05T09:21:48.400Z,98854.22
2024-01-05T09:24:54.143Z,98829.84
2024-01-05T09:28:07.762Z,98853.13
2024-01-05T09:31:15.251Z,98847.53
2024-01-05T09:34:25.025Z,98828.91
2024-01-05T09:37:36.934Z,98850.72
2024-01-05T09:40:47.535Z,98847.66
2024-01-05T09:43:57.308Z,98846.66
2024-01-05T09:47:01.530Z,98844.00
2024-01-05T09:50:07.625Z,98847.19
2024-01-05T09:53:20.708Z,98846.84
2024-01-05T09:56:26.968Z,98845.59
2024-01-05T09:59:43.394Z,98836.22
2024-01-05T10:02:59.237Z,98838.03
2024-01-05T10:06:05.997Z,98819.47
2024-01-05T10:09:10.881Z,98814.88
2024-01-05T10:12:17.295Z,98813.53
2024-01-05T10:15:25.775Z,98805.75
2024-01-05T10:18:33.007Z,98810.13
2024-01-05T10:21:44.339Z,98803.41
2024-01-05T10:24:49.959Z,98813.56
2024-01-05T10:27:57.711Z,98815.69
2024-01-05T10:31:17.689Z,98827.94
2024-01-05T10:34:36.292Z,98821.22
2024-01-05T10:37:44.532Z,98833.00
2024-01-05T10:40:50.769Z,98830.47
2024-01-05T10:43:56.675Z,98838.13
2024-01-05T10:47:09.797Z,98838.25
2024-01-05T10:50:15.635Z,98840.50
2024-01-05T10:53:38.646Z,98832.66
2024-01-05T10:56:56.369Z,98848.28
2024-01-05T11:00:13.944Z,98835.69
2024-01-05T11:03:24.684Z,98837.16
2024-01-05T11:06:31.896Z,98844.56
2024-01-05T11:09:46.399Z,98855.41
2024-01-05T11:13:11.899Z,98848.63
2024-01-05T11:16:41.366Z,98847.34
2024-01-05T11:20:21.021Z,98839.63
2024-01-05T11:23:27.470Z,98834.66
2024-01-05T11:26:36.554Z,98838.66
2024-01-05T11:29:51.947Z,98838.34
2024-01-05T11:32:59.044Z,98841.19
2024-01-05T11:36:04.639Z,98843.63
2024-01-05T11:39:11.899Z,98849.00
2024-01-05T11:42:36.935Z,98838.66
2024-01-05T11:45:53.889Z,98834.41
2024-01-05T11:49:00.515Z,98843.94
2024-01-05T11:52:07.156Z,98830.72
2024-01-05T11:55:14.412Z,98841.34
2024-01-05T11:58:19.884Z,98854.78
2024-01-05T12:01:27.631Z,98855.03
2024-01-05T12:04:51.464Z,98864.44
2024-01-05T12:08:01.453Z,98855.59
2024-01-05T12:11:07.280Z,98864.31
2024-01-05T12:14:11.277Z,98860.78
2024-01-05T12:17:20.776Z,98858.13
2024-01-05T12:20:26.207Z,98851.31
2024-01-05T12:23:33.252Z,98859.13
2024-01-05T12:26:39.701Z,98866.00
2024-01-05T12:29:52.423Z,98870.91
2024-01-05T12:32:56.663Z,98871.84
2024-01-05T12:36:00.638Z,98869.25
2024-01-05T12:39:12.962Z,98870.81
2024-01-05T12:42:18.977Z,98877.78
2024-01-05T12:45:24.544Z,98868.97
2024-01-05T12:48:29.219Z,98865.00
2024-01-05T12:51:33.628Z,98879.16
2024-01-05T12:54:47.032Z,98878.72
2024-01-05T12:57:50.956Z,98871.31
2024-01-05T13:01:02.656Z,98883.31
2024-01-05T13:04:12.533Z,98880.03
2024-01-05T13:07:19.533Z,98879.75
2024-01-05T13:10:29.251Z,98882.13
2024-01-05T13:13:33.434Z,98873.78
2024-01-05T13:16:45.433Z,98877.31
2024-01-05T13:19:49.498Z,98877.22
2024-01-05T13:22:54.170Z,98886.44
2024-01-05T13:26:01.072Z,98873.00
2024-01-05T13:29:05.049Z,98870.16
2024-01-05T13:32:09.390Z,98860.00
2024-01-05T13:35:17.832Z,98872.09
2024-01-05T13:38:23.451Z,98866.22
2024-01-05T13:41:31.515Z,98863.59
2024-01-05T13:44:36.533Z,98858.56
2024-01-05T13:47:46.264Z,98866.75
2024-01-05T13:50:50.262Z,98861.94
2024-01-05T13:53:54.234Z,98863.56
2024-01-05T13:56:59.691Z,98858.47
2024-01-05T14:00:04.872Z,98860.69
2024-01-05T14:03:10.175Z,98852.53
2024-01-05T14:06:17.148Z,98860.84
2024-01-05T14:09:21.640Z,98852.63
2024-01-05T14:12:32.445Z,98861.78
2024-01-05T14:15:36.576Z,98858.56
2024-01-05T14:18:42.171Z,98855.22
2024-01-05T14:21:49.213Z,98863.59
2024-01-05T14:24:56.035Z,98864.44
2024-01-05T14:28:02.484Z,98859.22
2024-01-05T14:31:09.452Z,98858.09
2024-01-05T14:34:14.571Z,98867.41
2024-01-05T14:37:22.536Z,98864.13
2024-01-05T14:40:29.276Z,98858.41
2024-01-05T14:43:35.567Z,98850.81
2024-01-05T14:46:40.081Z,98853.47
2024-01-05T14:49:44.134Z,98855.06
2024-01-05T14:52:56.011Z,98860.19
2024-01-05T14:56:09.096Z,98856.00
2024-01-05T14:59:19.173Z,98863.53
2024-01-05T15:02:23.153Z,98866.03
2024-01-05T15:05:27.081Z,98855.13
2024-01-05T15:43:20.240Z,98876.56
2024-01-05T15:46:27.716Z,98884.28
2024-01-05T15:49:33.576Z,98899.53
2024-01-05T15:52:42.577Z,98895.38
2024-01-05T15:55:54.963Z,98898.66
2024-01-05T15:59:03.905Z,98896.06
2024-01-05T16:02:08.232Z,98905.31
2024-01-05T16:05:15.600Z,98890.31
2024-01-05T16:08:23.011Z,98905.34
2024-01-05T16:11:31.977Z,98901.13
2024-01-05T16:14:49.870Z,98899.31
2024-01-05T16:17:54.103Z,98911.25
2024-01-05T16:20:58.480Z,98909.56
2024-01-05T16:24:04.692Z,98909.47
2024-01-05T16:27:14.542Z,98896.06
2024-01-05T16:30:25.448Z,98899.13
2024-01-05T16:33:33.241Z,98904.31
2024-01-05T16:36:40.258Z,98909.16
2024-01-05T16:39:46.002Z,98914.78
2024-01-05T16:42:50.602Z,98907.03
2024-01-05T16:49:17.310Z,98906.34
2024-01-05T16:52:23.622Z,98903.19
2024-01-05T16:55:37.337Z,98907.03
2024-01-05T16:58:42.700Z,98900.28
2024-01-05T17:01:48.150Z,98900.72
2024-01-05T17:04:52.229Z,98905.09
2024-01-05T17:07:57.849Z,98902.50
2024-01-05T17:11:01.951Z,98908.19
2024-01-05T17:14:06.104Z,98909.53
2024-01-05T17:17:14.421Z,98908.09
2024-01-05T17:20:25.703Z,98910.31
2024-01-05T17:23:31.509Z,98917.97
2024-01-05T17:26:40.459Z,98921.38
2024-01-05T17:29:45.305Z,98920.59
2024-01-05T17:32:51.944Z,98914.56
2024-01-05T17:36:07.117Z,98923.28
2024-01-05T17:39:11.536Z,98924.41
2024-01-05T17:42:16.161Z,98935.75
2024-01-05T17:45:20.556Z,98931.47
2024-01-05T17:48:26.274Z,98930.50
2024-01-05T17:51:42.387Z,98939.22
2024-01-05T17:54:46.715Z,98941.66
2024-01-05T17:57:51.627Z,98939.66
2024-01-05T18:00:56.231Z,98935.53
2024-01-05T18:04:06.198Z,98947.56
2024-01-05T18:07:12.890Z,98945.88
2024-01-05T18:10:17.311Z,98951.66
2024-01-05T18:13:21.819Z,98931.31
2024-01-05T18:16:27.214Z,98953.81
2024-01-05T18:19:33.332Z,98945.47
2024-01-05T18:22:38.557Z,98950.41
2024-01-05T18:25:42.929Z,98958.91
2024-01-05T18:28:47.017Z,98960.31
2024-01-05T18:31:54.224Z,98952.84
2024-01-05T18:34:59.977Z,98955.78
2024-01-05T18:38:12.012Z,98956.53
2024-01-05T18:41:22.672Z,98970.28
2024-01-05T18:44:26.957Z,98960.28
2024-01-05T18:47:31.515Z,98962.78
2024-01-05T18:50:40.090Z,98967.03
2024-01-05T18:53:45.191Z,98964.53
2024-01-05T18:56:51.513Z,98979.03
2024-01-05T18:59:55.822Z,98956.94
2024-01-05T19:03:00.456Z,98953.25
2024-01-05T19:06:06.768Z,98961.22
2024-01-05T19:09:14.920Z,98971.75
2024-01-05T19:12:25.413Z,98972.16
2024-01-05T19:15:35.948Z,98967.75
2024-01-05T19:18:45.429Z,98972.41
2024-01-05T19:21:57.008Z,98970.19
2024-01-05T19:25:02.104Z,98975.09
2024-01-05T19:28:06.993Z,98962.78
2024-01-05T19:31:13.596Z,98958.84
2024-01-05T19:34:21.277Z,98966.06
2024-01-05T19:37:32.113Z,98969.41
2024-01-05T19:40:37.025Z,98968.44
2024-01-05T19:43:43.965Z,98953.47
2024-01-05T19:46:48.772Z,98969.41
2024-01-05T19:49:52.918Z,98970.13
2024-01-05T19:53:01.842Z,98961.69
2024-01-05T19:56:06.537Z,98965.94
2024-01-05T19:59:13.954Z,98968.97
2024-01-05T20:02:20.782Z,98949.72
2024-01-05T20:05:25.090Z,98967.38
2024-01-05T20:08:31.212Z,98958.09
2024-01-05T20:11:35.245Z,98958.28
2024-01-05T20:14:42.222Z,98966.53
2024-01-05T20:17:46.417Z,98981.41
2024-01-05T20:20:50.690Z,98959.31
2024-01-05T20:23:58.963Z,98966.91
2024-01-05T20:27:05.523Z,98976.88
2024-01-05T20:30:11.391Z,98972.69
2024-01-05T20:33:17.678Z,98974.03
2024-01-05T20:36:21.795Z,98965.50
2024-01-05T20:39:28.880Z,98961.19
2024-01-05T20:42:34.665Z,98971.28
2024-01-05T20:45:42.805Z,98969.38
2024-01-05T20:48:49.126Z,98963.16
2024-01-05T20:51:53.794Z,98954.22
2024-01-05T20:55:00.344Z,98958.09
2024-01-05T20:58:05.111Z,98953.69
2024-01-05T21:01:09.294Z,98948.94
2024-01-05T21:04:16.134Z,98946.47
2024-01-05T21:07:21.153Z,98944.06
2024-01-05T21:10:26.724Z,98947.91
2024-01-05T21:13:30.667Z,98935.94
2024-01-05T21:16:46.835Z,98939.75
2024-01-05T21:19:50.856Z,98933.22
2024-01-05T21:22:56.617Z,98940.69
2024-01-05T21:26:05.627Z,98946.63
2024-01-05T21:29:09.591Z,98931.34
2024-01-05T21:32:15.178Z,98934.31
2024-01-05T21:35:19.412Z,98935.16
2024-01-05T21:38:26.438Z,98947.03
2024-01-05T21:41:33.788Z,98928.34
2024-01-05T21:44:40.307Z,98949.25
2024-01-05T21:47:46.384Z,98939.34
2024-01-05T21:50:50.325Z,98940.66
2024-01-05T21:53:54.288Z,98944.84
2024-01-05T21:57:03.253Z,98953.88
2024-01-05T22:00:08.900Z,98947.69
2024-01-05T22:03:21.120Z,98939.53
2024-01-05T22:06:55.923Z,98958.22
2024-01-05T22:10:00.633Z,98955.25
2024-01-05T22:13:08.066Z,98955.69
2024-01-05T22:16:19.533Z,98969.75
2024-01-05T22:19:24.302Z,98975.84
2024-01-05T22:22:28.416Z,98973.84
2024-01-05T22:25:32.969Z,98964.44
2024-01-05T22:28:39.655Z,98966.22
2024-01-05T22:31:44.603Z,98951.78
2024-01-05T22:34:51.694Z,98968.28
2024-01-05T22:37:55.882Z,98986.78
2024-01-05T22:41:00.255Z,98987.22
2024-01-05T22:44:07.487Z,98976.53
2024-01-05T22:47:11.477Z,98970.38
2024-01-05T22:50:15.631Z,98985.00
2024-01-05T22:53:21.453Z,98981.47
2024-01-05T22:56:25.563Z,98977.16
2024-01-05T22:59:32.858Z,98976.69
2024-01-05T23:02:39.973Z,98980.84
2024-01-05T23:05:47.922Z,98985.13
2024-01-05T23:08:52.084Z,98974.59
2024-01-05T23:12:07.367Z,98963.31
2024-01-05T23:15:16.041Z,98970.41
2024-01-05T23:18:20.424Z,98965.47
2024-01-05T23:21:30.971Z,98982.25
2024-01-05T23:24:37.741Z,98979.00
2024-01-05T23:27:43.567Z,98972.84
2024-01-05T23:30:50.223Z,98981.63
2024-01-05T23:34:04.865Z,98981.25
2024-01-05T23:37:17.180Z,98956.81
2024-01-05T23:40:21.878Z,98974.72
2024-01-05T23:43:26.103Z,98959.97
2024-01-05T23:46:36.942Z,98959.22
2024-01-05T23:49:40.959Z,98952.81
2024-01-05T23:52:45.387Z,98932.16
2024-01-05T23:55:49.892Z,98927.28
2024-01-05T23:58:56.189Z,98941.97
